Time;durP1;ratioP1;P1;durP2;ratioP2;P2;SDS_P1;SDS_P2;PMS_P1;PMS_P2;Temp;Humidity;BMP_temperature;BMP_pressure;BME280_temperature;BME280_humidity;BME280_pressure;Samples;Min_cycle;Max_cycle;Signal;HPM_P1;HPM_P2
2023/12/06 00:00:44;;;;;;;65.32;37.70;;;2.40;99.90;;;;;;5022635;28;20200;-35
2023/12/06 00:03:10;;;;;;;60.60;37.35;;;2.40;99.90;;;;;;5022856;28;21246;-36
2023/12/06 00:05:36;;;;;;;68.53;39.25;;;2.40;99.90;;;;;;5022055;28;20235;-36
2023/12/06 00:08:02;;;;;;;60.35;37.85;;;2.40;99.90;;;;;;5022653;28;20652;-35
2023/12/06 00:10:28;;;;;;;66.07;40.20;;;2.40;99.90;;;;;;5022505;28;20270;-34
2023/12/06 00:12:53;;;;;;;64.80;39.30;;;2.40;99.90;;;;;;5055044;28;20597;-36
2023/12/06 00:15:19;;;;;;;65.88;38.08;;;2.50;99.90;;;;;;5023307;28;20224;-36
2023/12/06 00:17:45;;;;;;;66.47;38.45;;;2.50;99.90;;;;;;5022097;28;20200;-36
2023/12/06 00:20:11;;;;;;;64.80;38.78;;;2.50;99.90;;;;;;5053874;28;20191;-35
2023/12/06 00:22:37;;;;;;;68.75;39.47;;;2.50;99.90;;;;;;5054355;28;20222;-36
2023/12/06 00:25:03;;;;;;;72.75;39.55;;;2.50;99.90;;;;;;5022685;28;21195;-38
2023/12/06 00:27:29;;;;;;;67.90;40.00;;;2.50;99.90;;;;;;5021975;28;20219;-38
2023/12/06 00:29:55;;;;;;;67.88;39.72;;;2.50;99.90;;;;;;5021051;28;20213;-36
2023/12/06 00:32:21;;;;;;;67.72;39.72;;;2.50;99.90;;;;;;5022411;28;20191;-40
2023/12/06 00:34:47;;;;;;;67.10;39.33;;;2.60;99.90;;;;;;5053921;28;20290;-38
2023/12/06 00:37:13;;;;;;;76.15;39.92;;;2.60;99.90;;;;;;5021583;28;20176;-37
2023/12/06 00:39:39;;;;;;;71.05;41.10;;;2.60;99.90;;;;;;5022701;28;20192;-35
2023/12/06 00:42:05;;;;;;;70.90;41.50;;;2.60;99.90;;;;;;5021899;28;20168;-37
2023/12/06 00:44:30;;;;;;;75.60;41.70;;;2.60;99.90;;;;;;5022225;28;20203;-35
2023/12/06 00:46:56;;;;;;;68.80;39.67;;;2.60;99.90;;;;;;5021920;28;20271;-36
2023/12/06 00:49:22;;;;;;;66.32;40.92;;;2.60;99.90;;;;;;5021955;28;20216;-36
2023/12/06 00:51:48;;;;;;;70.93;41.35;;;2.60;99.90;;;;;;5022027;28;20179;-35
2023/12/06 00:54:14;;;;;;;66.95;40.17;;;2.60;99.90;;;;;;5022232;28;20188;-35
2023/12/06 00:56:40;;;;;;;71.53;40.78;;;2.60;99.90;;;;;;5021577;28;20310;-35
2023/12/06 00:59:06;;;;;;;68.25;39.85;;;2.60;99.90;;;;;;5020934;28;20963;-38
2023/12/06 01:01:31;;;;;;;76.25;43.15;;;2.70;99.90;;;;;;5021513;28;20195;-39
2023/12/06 01:03:58;;;;;;;74.63;42.00;;;2.70;99.90;;;;;;5021100;28;20283;-37
2023/12/06 01:06:24;;;;;;;73.55;41.72;;;2.70;99.90;;;;;;5020713;28;20231;-37
2023/12/06 01:08:50;;;;;;;73.00;42.03;;;2.70;99.90;;;;;;5020061;28;20208;-40
2023/12/06 01:11:15;;;;;;;73.78;41.83;;;2.70;99.90;;;;;;5052661;28;20188;-37
2023/12/06 01:13:41;;;;;;;71.90;40.70;;;2.70;99.90;;;;;;5021190;28;20353;-36
2023/12/06 01:16:08;;;;;;;74.80;42.35;;;2.70;99.90;;;;;;5021426;28;20203;-35
2023/12/06 01:18:34;;;;;;;71.35;42.10;;;2.70;99.90;;;;;;5020375;28;20200;-37
2023/12/06 01:20:59;;;;;;;71.97;41.13;;;2.70;99.90;;;;;;5022271;28;20548;-35
2023/12/06 01:23:25;;;;;;;69.25;40.40;;;2.70;99.90;;;;;;5021276;28;20200;-37
2023/12/06 01:25:51;;;;;;;69.45;41.45;;;2.70;99.90;;;;;;5021304;28;20194;-37
2023/12/06 01:28:17;;;;;;;70.75;41.15;;;2.80;99.90;;;;;;5021515;28;20763;-38
2023/12/06 01:30:43;;;;;;;67.95;40.20;;;2.80;99.90;;;;;;5021112;28;20192;-35
2023/12/06 01:33:09;;;;;;;66.95;38.60;;;2.80;99.90;;;;;;5021503;28;20683;-37
2023/12/06 01:35:35;;;;;;;68.25;39.55;;;2.80;99.90;;;;;;5020233;28;20596;-37
2023/12/06 01:38:00;;;;;;;67.57;40.00;;;2.80;99.90;;;;;;5021068;28;20200;-36
2023/12/06 01:40:26;;;;;;;64.57;38.03;;;2.80;99.90;;;;;;5021596;28;20660;-36
2023/12/06 01:42:52;;;;;;;66.90;38.00;;;2.80;99.90;;;;;;5053207;28;20192;-37
2023/12/06 01:45:18;;;;;;;56.25;34.30;;;2.90;99.90;;;;;;5020667;28;20211;-35
2023/12/06 01:47:46;;;;;;;59.70;36.45;;;2.90;99.90;;;;;;5021099;28;20220;-36
2023/12/06 01:50:13;;;;;;;62.13;36.00;;;2.90;99.90;;;;;;5021718;28;20266;-38
2023/12/06 01:52:39;;;;;;;60.55;36.65;;;2.90;99.90;;;;;;5020995;28;20723;-36
2023/12/06 01:55:05;;;;;;;66.25;36.95;;;2.90;99.90;;;;;;5020981;28;20234;-37
2023/12/06 01:57:32;;;;;;;61.10;37.38;;;2.90;99.90;;;;;;5020913;28;20213;-37
2023/12/06 01:59:58;;;;;;;57.65;34.65;;;2.90;99.90;;;;;;5020683;28;20176;-46
2023/12/06 02:02:25;;;;;;;57.42;35.67;;;2.90;99.90;;;;;;5019979;28;20188;-37
2023/12/06 02:04:51;;;;;;;55.67;33.50;;;3.00;99.90;;;;;;5019510;28;20210;-36
2023/12/06 02:07:18;;;;;;;52.72;31.50;;;3.00;99.90;;;;;;5020779;28;20231;-38
2023/12/06 02:09:44;;;;;;;48.55;31.30;;;3.00;99.90;;;;;;5020925;28;20541;-37
2023/12/06 02:12:10;;;;;;;53.85;31.73;;;3.00;99.90;;;;;;5020696;28;20230;-36
2023/12/06 02:14:36;;;;;;;51.72;30.77;;;2.90;99.90;;;;;;5020926;28;20201;-37
2023/12/06 02:17:05;;;;;;;49.03;30.23;;;3.00;99.90;;;;;;5020377;28;20192;-36
2023/12/06 02:19:31;;;;;;;50.72;30.80;;;2.90;99.90;;;;;;5019976;28;20198;-33
2023/12/06 02:21:58;;;;;;;45.65;28.17;;;2.90;99.90;;;;;;5020661;28;20262;-34
2023/12/06 02:24:29;;;;;;;45.83;29.83;;;2.90;99.90;;;;;;5024283;28;20250;-36
2023/12/06 02:26:55;;;;;;;45.42;27.58;;;2.90;99.90;;;;;;5024145;28;20179;-36
2023/12/06 02:29:24;;;;;;;49.72;26.58;;;2.90;99.90;;;;;;5024446;28;20234;-38
2023/12/06 02:31:50;;;;;;;46.28;26.98;;;2.90;99.90;;;;;;5022886;28;20192;-38
2023/12/06 02:34:26;;;;;;;39.90;25.85;;;2.90;99.90;;;;;;5024709;28;20188;-38
2023/12/06 02:36:59;;;;;;;38.13;25.60;;;2.90;99.90;;;;;;5024217;28;20180;-35
2023/12/06 02:39:29;;;;;;;40.25;26.27;;;2.90;99.90;;;;;;5024491;28;20192;-37
2023/12/06 02:41:55;;;;;;;38.65;23.83;;;2.90;99.90;;;;;;5024206;28;20219;-35
2023/12/06 02:44:21;;;;;;;38.25;23.75;;;2.90;99.90;;;;;;5023619;28;20227;-37
2023/12/06 02:46:47;;;;;;;34.67;23.75;;;2.90;99.90;;;;;;5024390;28;20208;-35
2023/12/06 02:49:13;;;;;;;36.05;23.67;;;2.90;99.90;;;;;;5055774;28;20208;-40
2023/12/06 02:51:39;;;;;;;33.53;23.05;;;2.90;99.90;;;;;;5023679;28;20188;-36
2023/12/06 02:54:05;;;;;;;33.70;22.30;;;3.00;99.90;;;;;;5023863;28;20547;-39
2023/12/06 02:56:30;;;;;;;33.47;22.85;;;3.00;99.90;;;;;;5023913;28;20188;-35
2023/12/06 02:58:56;;;;;;;33.08;22.40;;;3.00;99.90;;;;;;5024019;28;20180;-34
2023/12/06 03:01:22;;;;;;;33.75;21.75;;;3.00;99.90;;;;;;5024180;28;20191;-36
2023/12/06 03:03:48;;;;;;;33.05;21.77;;;3.00;99.90;;;;;;5022221;28;20596;-36
2023/12/06 03:06:14;;;;;;;30.95;20.88;;;3.00;99.90;;;;;;5023841;28;20276;-39
2023/12/06 03:08:40;;;;;;;30.38;20.45;;;3.00;99.90;;;;;;5023191;28;20211;-39
2023/12/06 03:11:06;;;;;;;30.95;20.30;;;3.00;99.90;;;;;;5055455;28;20840;-38
2023/12/06 03:13:31;;;;;;;30.30;19.95;;;3.00;99.90;;;;;;5023394;28;20751;-35
2023/12/06 03:15:57;;;;;;;28.92;18.98;;;3.00;99.90;;;;;;5023683;28;20184;-35
2023/12/06 03:18:23;;;;;;;27.63;19.33;;;3.00;99.90;;;;;;5022892;28;20660;-35
2023/12/06 03:20:49;;;;;;;28.33;19.35;;;3.00;99.90;;;;;;5023429;28;20195;-37
2023/12/06 03:23:15;;;;;;;28.60;19.30;;;3.00;99.90;;;;;;5023152;28;20195;-35
2023/12/06 03:25:41;;;;;;;26.42;17.92;;;3.00;99.90;;;;;;5023565;28;20195;-35
2023/12/06 03:28:07;;;;;;;27.48;18.67;;;3.00;99.90;;;;;;5023244;28;20574;-36
2023/12/06 03:30:32;;;;;;;26.77;18.75;;;3.00;99.90;;;;;;5023589;28;20774;-36
2023/12/06 03:32:58;;;;;;;29.67;19.05;;;2.90;99.90;;;;;;5023657;28;20203;-38
2023/12/06 03:35:24;;;;;;;29.40;19.67;;;3.00;99.90;;;;;;5021621;28;20190;-37
2023/12/06 03:37:50;;;;;;;25.13;18.27;;;3.00;99.90;;;;;;5021093;28;20195;-36
2023/12/06 03:40:16;;;;;;;27.52;17.90;;;3.00;99.90;;;;;;5023505;28;20192;-35
2023/12/06 03:42:42;;;;;;;24.48;17.80;;;3.00;99.90;;;;;;5022540;28;20199;-36
2023/12/06 03:45:09;;;;;;;24.10;17.63;;;3.00;99.90;;;;;;5023021;28;20237;-35
2023/12/06 03:47:35;;;;;;;26.98;17.92;;;3.00;99.90;;;;;;5023368;28;20231;-35
2023/12/06 03:50:01;;;;;;;26.90;17.25;;;3.00;99.90;;;;;;5054510;28;20563;-37
2023/12/06 03:52:29;;;;;;;28.98;18.60;;;3.00;99.90;;;;;;5023096;28;20222;-38
2023/12/06 03:54:55;;;;;;;25.42;18.00;;;3.00;99.90;;;;;;5052992;28;20583;-37
2023/12/06 03:57:21;;;;;;;27.48;18.13;;;3.00;99.90;;;;;;5023058;28;20199;-35
2023/12/06 03:59:47;;;;;;;26.70;18.15;;;3.00;99.90;;;;;;5022621;28;20196;-34
2023/12/06 04:02:14;;;;;;;24.67;17.73;;;3.00;99.90;;;;;;5022756;28;20196;-37
2023/12/06 04:04:40;;;;;;;27.83;18.20;;;3.00;99.90;;;;;;5022695;28;21171;-39
2023/12/06 04:07:06;;;;;;;26.95;17.95;;;3.00;99.90;;;;;;5022225;28;20224;-37
2023/12/06 04:09:32;;;;;;;25.52;17.10;;;3.00;99.90;;;;;;5022669;28;20208;-38
2023/12/06 04:11:57;;;;;;;26.38;17.98;;;3.10;99.90;;;;;;5023319;28;20303;-38
2023/12/06 04:14:23;;;;;;;24.40;16.92;;;3.10;99.90;;;;;;5022102;28;20735;-36
2023/12/06 04:16:49;;;;;;;27.70;17.08;;;3.10;99.90;;;;;;5022422;28;20191;-39
2023/12/06 04:19:16;;;;;;;26.42;17.40;;;3.10;99.90;;;;;;5022409;28;20183;-38
2023/12/06 04:21:41;;;;;;;25.67;17.73;;;3.10;99.90;;;;;;5021954;28;20211;-39
2023/12/06 04:24:07;;;;;;;25.38;16.80;;;3.20;99.90;;;;;;5022555;28;21262;-37
2023/12/06 04:26:33;;;;;;;24.70;17.25;;;3.20;99.90;;;;;;5022013;28;20230;-37
2023/12/06 04:28:59;;;;;;;23.58;16.85;;;3.20;99.90;;;;;;5022633;28;20208;-39
2023/12/06 04:31:25;;;;;;;25.25;16.00;;;3.20;99.90;;;;;;5021958;28;20176;-36
2023/12/06 04:33:51;;;;;;;22.95;16.23;;;3.20;99.90;;;;;;5021696;28;20202;-35
2023/12/06 04:36:17;;;;;;;22.73;16.63;;;3.20;99.90;;;;;;5054061;28;20183;-37
2023/12/06 04:38:42;;;;;;;27.02;17.17;;;3.30;99.90;;;;;;5021716;28;20235;-40
2023/12/06 04:41:08;;;;;;;25.02;17.23;;;3.30;99.90;;;;;;5022671;28;20290;-37
2023/12/06 04:43:34;;;;;;;23.90;15.80;;;3.30;99.90;;;;;;5021900;28;20200;-36
2023/12/06 04:46:00;;;;;;;22.55;16.52;;;3.30;99.90;;;;;;5020688;28;20230;-36
2023/12/06 04:48:27;;;;;;;24.17;16.80;;;3.30;99.90;;;;;;5022368;28;20289;-37
2023/12/06 04:50:53;;;;;;;23.13;15.70;;;3.30;99.90;;;;;;5021603;28;20971;-36
2023/12/06 04:53:19;;;;;;;25.88;16.33;;;3.30;99.90;;;;;;5020824;28;20188;-36
2023/12/06 04:55:45;;;;;;;23.27;16.77;;;3.30;99.90;;;;;;5021565;28;20188;-36
2023/12/06 04:58:11;;;;;;;24.17;16.88;;;3.30;99.90;;;;;;5021823;28;20192;-36
2023/12/06 05:00:37;;;;;;;22.95;16.45;;;3.30;99.90;;;;;;5021873;28;20188;-37
2023/12/06 05:03:03;;;;;;;25.65;17.27;;;3.40;99.90;;;;;;5021555;28;20210;-38
2023/12/06 05:05:29;;;;;;;23.67;17.00;;;3.30;99.90;;;;;;5021804;28;20292;-38
2023/12/06 05:07:58;;;;;;;24.90;16.42;;;3.30;99.90;;;;;;5019910;28;20207;-35
2023/12/06 05:10:24;;;;;;;30.38;16.98;;;3.30;99.90;;;;;;5052456;28;20245;-36
2023/12/06 05:12:49;;;;;;;23.48;17.05;;;3.40;99.90;;;;;;5021483;28;20203;-37
2023/12/06 05:15:15;;;;;;;26.15;16.98;;;3.40;99.90;;;;;;5020875;28;20191;-35
2023/12/06 05:17:41;;;;;;;23.35;17.20;;;3.40;99.90;;;;;;5020305;28;20214;-37
2023/12/06 05:20:10;;;;;;;26.20;17.77;;;3.40;99.90;;;;;;5020998;28;20190;-37
2023/12/06 05:22:36;;;;;;;27.80;17.00;;;3.40;99.90;;;;;;5003182;28;21232;-35
2023/12/06 05:25:06;;;;;;;25.23;17.20;;;3.40;99.90;;;;;;5021379;28;20187;-36
2023/12/06 05:27:33;;;;;;;25.75;17.00;;;3.40;99.90;;;;;;5053134;28;20191;-39
2023/12/06 05:29:58;;;;;;;21.83;15.95;;;3.40;99.90;;;;;;5021361;28;20179;-37
2023/12/06 05:32:24;;;;;;;25.38;17.88;;;3.50;99.90;;;;;;5020963;28;20192;-37
2023/12/06 05:34:50;;;;;;;23.55;16.13;;;3.50;99.90;;;;;;5020270;28;20195;-35
2023/12/06 05:37:17;;;;;;;24.20;17.02;;;3.50;99.90;;;;;;5021193;28;20190;-35
2023/12/06 05:39:42;;;;;;;27.10;17.17;;;3.50;99.90;;;;;;5020944;28;20196;-39
2023/12/06 05:42:08;;;;;;;23.50;16.60;;;3.50;99.90;;;;;;5021647;28;20232;-36
2023/12/06 05:44:34;;;;;;;23.38;16.38;;;3.50;99.90;;;;;;5020841;28;20184;-34
2023/12/06 05:47:00;;;;;;;23.08;16.17;;;3.50;99.90;;;;;;5021061;28;20530;-37
2023/12/06 05:49:26;;;;;;;20.85;15.35;;;3.50;99.90;;;;;;5021115;28;20207;-38
2023/12/06 05:51:52;;;;;;;26.38;16.58;;;3.50;99.90;;;;;;5052702;28;20188;-36
2023/12/06 05:54:17;;;;;;;20.60;15.82;;;3.50;99.90;;;;;;5052228;28;20673;-36
2023/12/06 05:56:43;;;;;;;23.50;15.18;;;3.60;99.90;;;;;;5020508;28;20184;-36
2023/12/06 05:59:09;;;;;;;27.23;17.08;;;3.60;99.90;;;;;;5039353;28;20659;-38
2023/12/06 06:01:36;;;;;;;20.20;14.65;;;3.60;99.90;;;;;;5024919;28;20206;-36
2023/12/06 06:04:02;;;;;;;26.52;16.45;;;3.60;99.90;;;;;;5025198;28;20195;-37
2023/12/06 06:06:34;;;;;;;22.13;15.30;;;3.60;99.90;;;;;;5039863;28;20219;-36
2023/12/06 06:09:01;;;;;;;20.02;15.38;;;3.60;99.90;;;;;;5024720;28;20205;-37
2023/12/06 06:11:27;;;;;;;21.75;15.52;;;3.60;99.90;;;;;;5024696;28;20881;-36
2023/12/06 06:13:54;;;;;;;19.48;14.63;;;3.70;99.90;;;;;;5025666;28;20183;-37
2023/12/06 06:16:20;;;;;;;20.02;14.50;;;3.70;99.90;;;;;;5024922;28;20214;-35
2023/12/06 06:18:46;;;;;;;23.27;14.95;;;3.70;99.90;;;;;;5024454;28;20279;-37
2023/12/06 06:21:12;;;;;;;22.48;14.60;;;3.70;99.90;;;;;;5025422;28;20634;-35
2023/12/06 06:23:38;;;;;;;21.67;14.15;;;3.70;99.90;;;;;;5013974;28;20179;-36
2023/12/06 06:26:04;;;;;;;23.00;14.57;;;3.70;99.90;;;;;;5024920;28;20198;-37
2023/12/06 06:28:30;;;;;;;20.10;14.45;;;3.80;99.90;;;;;;5023532;28;21321;-37
2023/12/06 06:30:56;;;;;;;19.00;14.10;;;3.80;99.90;;;;;;5024344;28;20192;-36
2023/12/06 06:33:22;;;;;;;18.17;13.23;;;3.80;99.90;;;;;;5023312;28;20180;-35
2023/12/06 06:35:48;;;;;;;24.35;13.85;;;3.80;99.90;;;;;;5024395;28;20282;-37
2023/12/06 06:38:13;;;;;;;20.55;13.70;;;3.80;99.90;;;;;;5024686;28;20207;-37
2023/12/06 06:40:39;;;;;;;19.33;13.48;;;3.80;99.90;;;;;;5024630;28;20215;-38
2023/12/06 06:43:06;;;;;;;20.10;13.15;;;3.90;99.90;;;;;;5024066;28;20343;-38
2023/12/06 06:45:32;;;;;;;19.58;14.30;;;3.90;99.90;;;;;;5055262;28;20192;-38
2023/12/06 06:47:58;;;;;;;19.00;12.90;;;3.90;99.90;;;;;;5055571;28;20215;-37
2023/12/06 06:50:24;;;;;;;21.92;13.40;;;3.90;99.90;;;;;;5023528;28;21633;-34
2023/12/06 06:52:49;;;;;;;20.95;13.73;;;3.90;99.90;;;;;;5022887;28;20564;-35
2023/12/06 06:55:15;;;;;;;18.35;13.38;;;3.90;99.90;;;;;;5054072;28;20196;-36
2023/12/06 06:57:41;;;;;;;23.67;13.63;;;4.00;99.90;;;;;;5023680;28;20215;-39
2023/12/06 07:00:09;;;;;;;18.98;12.73;;;4.00;99.90;;;;;;5021427;28;20226;-40
2023/12/06 07:02:35;;;;;;;19.73;13.45;;;4.00;99.90;;;;;;5021036;28;20234;-38
2023/12/06 07:05:02;;;;;;;19.02;13.45;;;4.00;99.90;;;;;;5023457;28;20192;-36
2023/12/06 07:07:29;;;;;;;18.70;12.77;;;4.10;99.90;;;;;;5023996;28;20230;-35
2023/12/06 07:09:54;;;;;;;24.75;13.90;;;4.10;99.90;;;;;;5021844;28;20196;-38
2023/12/06 07:12:20;;;;;;;22.52;13.60;;;4.10;99.90;;;;;;5022875;28;20191;-36
2023/12/06 07:14:46;;;;;;;18.00;13.68;;;4.10;99.90;;;;;;5022373;28;20977;-39
2023/12/06 07:17:12;;;;;;;17.73;13.80;;;4.20;99.90;;;;;;5021004;28;20183;-39
2023/12/06 07:19:38;;;;;;;19.48;13.18;;;4.10;99.90;;;;;;5021796;28;20280;-37
2023/12/06 07:22:06;;;;;;;19.13;13.25;;;4.10;99.90;;;;;;5022651;28;20202;-37
2023/12/06 07:24:32;;;;;;;20.80;13.93;;;4.10;99.90;;;;;;5022735;28;20273;-38
2023/12/06 07:26:58;;;;;;;19.75;13.88;;;4.10;99.90;;;;;;5022197;28;20720;-39
2023/12/06 07:29:23;;;;;;;23.25;14.00;;;4.20;99.90;;;;;;5023016;28;20250;-35
2023/12/06 07:31:50;;;;;;;19.58;14.75;;;4.20;99.90;;;;;;5022116;28;20216;-37
2023/12/06 07:34:17;;;;;;;19.05;14.90;;;4.20;99.90;;;;;;5023663;28;20223;-39
2023/12/06 07:36:45;;;;;;;19.45;13.27;;;4.20;99.90;;;;;;5022817;28;20242;-38
2023/12/06 07:39:11;;;;;;;24.10;13.90;;;4.20;99.90;;;;;;5022636;28;20203;-36
2023/12/06 07:41:37;;;;;;;20.42;13.70;;;4.20;99.90;;;;;;5053679;28;20214;-37
2023/12/06 07:44:03;;;;;;;19.75;14.35;;;4.20;99.90;;;;;;5022770;28;20200;-37
2023/12/06 07:46:29;;;;;;;24.70;13.80;;;4.20;99.90;;;;;;5022513;28;20278;-38
2023/12/06 07:48:54;;;;;;;18.42;14.38;;;4.20;99.90;;;;;;5022171;28;20306;-36
2023/12/06 07:51:20;;;;;;;17.10;13.38;;;4.30;99.90;;;;;;5020793;28;20277;-37
2023/12/06 07:53:46;;;;;;;23.98;13.77;;;4.30;99.90;;;;;;5022252;28;20241;-41
2023/12/06 07:56:12;;;;;;;21.45;14.38;;;4.30;99.90;;;;;;5023027;28;20192;-36
2023/12/06 07:58:38;;;;;;;20.70;14.38;;;4.30;99.90;;;;;;5022467;28;20200;-35
2023/12/06 08:01:05;;;;;;;19.98;14.13;;;4.30;99.90;;;;;;5021095;28;20673;-34
2023/12/06 08:03:31;;;;;;;18.15;13.77;;;4.30;99.90;;;;;;5022519;28;20184;-38
2023/12/06 08:05:59;;;;;;;21.40;13.43;;;4.30;99.90;;;;;;5021820;28;21352;-36
2023/12/06 08:08:28;;;;;;;19.88;13.95;;;4.40;99.90;;;;;;5004098;28;20211;-38
2023/12/06 08:10:55;;;;;;;22.55;13.75;;;4.40;99.90;;;;;;5036773;28;20210;-35
2023/12/06 08:13:24;;;;;;;24.17;14.73;;;4.40;99.90;;;;;;5021949;28;20207;-37
2023/12/06 08:15:50;;;;;;;19.73;14.07;;;4.40;99.90;;;;;;5021484;28;20196;-39
2023/12/06 08:18:16;;;;;;;19.70;13.88;;;4.40;99.90;;;;;;5021602;28;20211;-36
2023/12/06 08:20:42;;;;;;;17.95;14.00;;;4.50;99.90;;;;;;5021658;28;20200;-38
2023/12/06 08:23:08;;;;;;;23.30;13.98;;;4.50;99.90;;;;;;5021491;28;20591;-37
2023/12/06 08:25:34;;;;;;;20.48;14.18;;;4.50;99.90;;;;;;5019718;28;20191;-39
2023/12/06 08:28:00;;;;;;;22.15;14.27;;;4.60;99.90;;;;;;5021679;28;20227;-37
2023/12/06 08:30:26;;;;;;;19.40;13.68;;;4.60;99.90;;;;;;5021854;28;20172;-37
2023/12/06 08:32:53;;;;;;;21.33;14.05;;;4.60;99.90;;;;;;5021965;28;20184;-35
2023/12/06 08:35:19;;;;;;;20.63;14.50;;;4.60;99.90;;;;;;5021335;28;20188;-37
2023/12/06 08:37:45;;;;;;;19.70;13.63;;;4.60;99.90;;;;;;5021426;28;20204;-36
2023/12/06 08:40:12;;;;;;;22.77;14.38;;;4.50;99.90;;;;;;5021439;28;20190;-37
2023/12/06 08:42:39;;;;;;;18.13;13.38;;;4.50;99.90;;;;;;5021540;28;20208;-37
2023/12/06 08:45:08;;;;;;;19.58;13.60;;;4.60;99.90;;;;;;5021975;28;20195;-37
2023/12/06 08:47:34;;;;;;;20.95;13.43;;;4.60;99.90;;;;;;5021472;28;20211;-38
2023/12/06 08:50:01;;;;;;;20.42;13.25;;;4.60;99.90;;;;;;5021653;28;20200;-36
2023/12/06 08:52:26;;;;;;;18.88;13.27;;;4.50;99.90;;;;;;5020422;28;20187;-36
2023/12/06 08:54:53;;;;;;;21.30;13.60;;;4.60;99.90;;;;;;5021523;28;20210;-37
2023/12/06 08:57:19;;;;;;;19.77;12.88;;;4.50;99.90;;;;;;5020787;28;20204;-37
2023/12/06 08:59:45;;;;;;;18.17;13.02;;;4.60;99.90;;;;;;5020355;28;20199;-39
2023/12/06 09:02:11;;;;;;;17.55;12.63;;;4.50;99.90;;;;;;5020641;28;20200;-39
2023/12/06 09:04:36;;;;;;;16.58;12.73;;;4.50;99.90;;;;;;5021264;28;20219;-38
2023/12/06 09:07:03;;;;;;;19.48;12.52;;;4.50;99.90;;;;;;5019434;28;20250;-38
2023/12/06 09:09:29;;;;;;;16.83;12.35;;;4.50;99.90;;;;;;5020870;28;20322;-35
2023/12/06 09:11:55;;;;;;;18.73;12.48;;;4.50;99.90;;;;;;5020917;28;20703;-37
2023/12/06 09:14:21;;;;;;;23.50;11.77;;;4.60;99.90;;;;;;5018933;28;20192;-36
2023/12/06 09:16:47;;;;;;;19.50;12.60;;;4.50;99.90;;;;;;5020947;28;20191;-36
2023/12/06 09:19:13;;;;;;;18.50;12.43;;;4.50;99.90;;;;;;5021766;28;20206;-37
2023/12/06 09:21:41;;;;;;;19.10;12.40;;;4.60;99.90;;;;;;5020337;28;20195;-36
2023/12/06 09:24:10;;;;;;;17.25;11.80;;;4.60;99.90;;;;;;5021175;28;20663;-36
2023/12/06 09:26:37;;;;;;;23.83;12.45;;;4.60;99.90;;;;;;5051688;28;20203;-35
2023/12/06 09:29:05;;;;;;;17.02;11.60;;;4.60;99.90;;;;;;5021949;28;20203;-37
2023/12/06 09:31:33;;;;;;;18.02;12.02;;;4.60;99.90;;;;;;5019424;28;20196;-37
2023/12/06 09:33:59;;;;;;;16.70;12.55;;;4.70;99.90;;;;;;5018550;28;20186;-36
2023/12/06 09:36:27;;;;;;;20.05;12.45;;;4.70;99.90;;;;;;5018962;28;20191;-36
2023/12/06 09:38:57;;;;;;;16.80;12.65;;;4.70;99.90;;;;;;5020759;28;20188;-37
2023/12/06 09:41:30;;;;;;;18.88;12.38;;;4.80;99.90;;;;;;5020839;28;20184;-36
2023/12/06 09:43:56;;;;;;;18.77;11.57;;;4.80;99.90;;;;;;5019258;28;20183;-36
2023/12/06 09:46:23;;;;;;;16.23;10.82;;;4.80;99.90;;;;;;5052724;28;20234;-36
2023/12/06 09:48:49;;;;;;;19.92;12.27;;;4.80;99.90;;;;;;5052473;28;20255;-37
2023/12/06 09:51:16;;;;;;;20.73;11.57;;;4.80;99.90;;;;;;5020283;28;20241;-37
2023/12/06 09:53:42;;;;;;;17.00;11.38;;;4.70;99.90;;;;;;5019007;28;20306;-36
2023/12/06 09:56:09;;;;;;;18.02;11.30;;;4.70;99.90;;;;;;5021008;28;20218;-39
2023/12/06 09:58:36;;;;;;;17.23;11.40;;;4.70;99.90;;;;;;5020824;28;20241;-37
2023/12/06 10:01:05;;;;;;;15.85;11.82;;;4.70;99.90;;;;;;5020392;28;20657;-38
2023/12/06 10:03:31;;;;;;;18.10;12.60;;;4.80;99.90;;;;;;5019901;28;20246;-36
2023/12/06 10:05:59;;;;;;;18.27;12.38;;;4.80;99.90;;;;;;5020201;28;20231;-38
2023/12/06 10:08:25;;;;;;;16.15;11.80;;;4.80;99.90;;;;;;5019262;28;20222;-37
2023/12/06 10:11:01;;;;;;;15.85;12.00;;;4.80;99.90;;;;;;5021091;28;20649;-34
2023/12/06 10:13:38;;;;;;;19.13;12.45;;;4.80;99.90;;;;;;5052445;28;20200;-37
2023/12/06 10:16:20;;;;;;;23.02;12.93;;;4.80;99.90;;;;;;4985058;28;20285;-35
2023/12/06 10:18:48;;;;;;;19.25;12.98;;;4.80;99.90;;;;;;5020250;28;20549;-39
2023/12/06 10:21:15;;;;;;;22.55;12.98;;;4.80;99.90;;;;;;5020099;28;20196;-38
2023/12/06 10:23:44;;;;;;;20.40;13.05;;;4.90;99.90;;;;;;5020973;28;20208;-43
2023/12/06 10:26:16;;;;;;;20.08;13.57;;;4.80;99.90;;;;;;5020685;28;20187;-39
2023/12/06 10:28:43;;;;;;;22.20;13.07;;;4.80;99.90;;;;;;5020726;28;20234;-40
2023/12/06 10:31:09;;;;;;;16.92;13.38;;;4.80;99.90;;;;;;5019019;28;20199;-39
2023/12/06 10:33:36;;;;;;;21.00;13.30;;;4.90;99.90;;;;;;5020258;28;20177;-38
2023/12/06 10:36:04;;;;;;;19.15;13.27;;;4.90;99.90;;;;;;5020168;28;20199;-37
2023/12/06 10:38:31;;;;;;;19.63;13.57;;;4.90;99.90;;;;;;5051515;28;21048;-35
2023/12/06 10:41:03;;;;;;;20.52;13.43;;;5.00;99.90;;;;;;5001271;28;20561;-41
2023/12/06 10:43:29;;;;;;;17.42;12.52;;;5.00;99.90;;;;;;5019544;28;20184;-36
2023/12/06 10:45:55;;;;;;;19.27;12.32;;;5.00;99.90;;;;;;5055553;28;20187;-36
2023/12/06 10:48:21;;;;;;;19.73;12.38;;;5.00;99.90;;;;;;5023796;28;20212;-38
2023/12/06 10:50:49;;;;;;;17.75;13.35;;;5.00;99.90;;;;;;5022503;28;20188;-36
2023/12/06 10:53:17;;;;;;;20.08;13.10;;;5.00;99.90;;;;;;5023473;28;20182;-39
2023/12/06 10:55:45;;;;;;;21.15;13.05;;;5.10;99.90;;;;;;5023609;28;20611;-34
2023/12/06 10:58:12;;;;;;;20.83;12.63;;;5.10;99.90;;;;;;5024320;28;20188;-37
2023/12/06 11:00:39;;;;;;;21.92;12.55;;;5.10;99.90;;;;;;5021462;28;20192;-36
2023/12/06 11:03:05;;;;;;;18.33;12.30;;;5.10;99.90;;;;;;5022884;28;20219;-40
2023/12/06 11:05:38;;;;;;;20.52;12.40;;;5.10;99.90;;;;;;5021346;28;20262;-39
2023/12/06 11:08:10;;;;;;;17.98;12.00;;;5.20;99.90;;;;;;5021973;28;20200;-38
2023/12/06 11:10:51;;;;;;;17.15;12.48;;;5.20;99.90;;;;;;5055042;28;20194;-36
2023/12/06 11:13:43;;;;;;;18.85;11.82;;;5.20;99.90;;;;;;5022774;28;23064;-37
2023/12/06 11:16:47;;;;;;;19.00;11.23;;;5.30;99.90;;;;;;5011017;28;20271;-34
2023/12/06 11:19:14;;;;;;;18.38;11.10;;;5.30;99.90;;;;;;5022313;28;20195;-37
2023/12/06 11:21:40;;;;;;;15.68;11.07;;;5.30;99.90;;;;;;5023270;28;20238;-36
2023/12/06 11:24:10;;;;;;;22.05;11.50;;;5.30;99.90;;;;;;5022626;28;20184;-36
2023/12/06 11:26:37;;;;;;;16.88;10.30;;;5.30;99.90;;;;;;5021292;28;20215;-38
2023/12/06 11:29:03;;;;;;;15.90;10.80;;;5.40;99.90;;;;;;5022557;28;20212;-36
2023/12/06 11:31:37;;;;;;;17.70;10.75;;;5.40;99.90;;;;;;5021706;28;20180;-37
2023/12/06 11:34:09;;;;;;;12.48;9.65;;;5.40;99.90;;;;;;5022149;28;20176;-38
2023/12/06 11:36:37;;;;;;;16.70;10.38;;;5.40;99.90;;;;;;5022528;28;20613;-35
2023/12/06 11:39:16;;;;;;;13.15;9.00;;;5.40;99.90;;;;;;5022555;28;20550;-37
2023/12/06 11:42:05;;;;;;;14.95;10.15;;;5.40;99.90;;;;;;5023271;28;20568;-36
2023/12/06 11:44:30;;;;;;;15.07;9.32;;;5.40;99.90;;;;;;5022071;28;20196;-38
2023/12/06 11:46:56;;;;;;;13.32;9.25;;;5.40;99.90;;;;;;5022302;28;20195;-36
2023/12/06 11:49:23;;;;;;;14.80;9.70;;;5.40;99.90;;;;;;5020723;28;20278;-36
2023/12/06 11:52:10;;;;;;;12.70;8.82;;;5.30;99.90;;;;;;5022260;28;20192;-40
2023/12/06 11:54:44;;;;;;;9.93;7.97;;;5.30;99.90;;;;;;5022457;28;20199;-35
2023/12/06 11:57:11;;;;;;;12.80;9.13;;;5.30;99.90;;;;;;5021021;28;20187;-38
2023/12/06 11:59:40;;;;;;;11.43;8.00;;;5.30;99.90;;;;;;5022049;28;20562;-38
2023/12/06 12:02:07;;;;;;;11.18;7.85;;;5.20;99.90;;;;;;5022145;28;20255;-38
2023/12/06 12:04:37;;;;;;;13.75;8.00;;;5.20;99.90;;;;;;5021608;28;20271;-38
2023/12/06 12:07:03;;;;;;;10.82;7.97;;;5.20;99.90;;;;;;5022483;28;20247;-38
2023/12/06 12:09:30;;;;;;;11.57;7.32;;;5.20;99.90;;;;;;5021552;28;20713;-34
2023/12/06 12:11:57;;;;;;;16.27;8.35;;;5.20;99.90;;;;;;5021954;28;20185;-36
2023/12/06 12:14:31;;;;;;;11.98;9.05;;;5.20;99.90;;;;;;5021598;28;20348;-37
2023/12/06 12:16:57;;;;;;;14.07;8.43;;;5.20;99.90;;;;;;5022039;28;20188;-36
2023/12/06 12:19:23;;;;;;;12.60;7.88;;;5.20;99.90;;;;;;5021482;28;20213;-36
2023/12/06 12:21:49;;;;;;;10.20;7.82;;;5.20;99.90;;;;;;5021752;28;20196;-38
2023/12/06 12:24:18;;;;;;;11.93;7.72;;;5.20;99.90;;;;;;5019508;28;20800;-36
2023/12/06 12:26:44;;;;;;;11.23;7.65;;;5.20;99.90;;;;;;5020783;28;20283;-38
2023/12/06 12:29:16;;;;;;;11.02;7.47;;;5.30;99.90;;;;;;5021702;28;20703;-38
2023/12/06 12:31:42;;;;;;;8.82;6.93;;;5.20;99.90;;;;;;5022810;28;20293;-37
2023/12/06 12:34:08;;;;;;;11.07;7.25;;;5.20;99.90;;;;;;5020920;28;20199;-38
2023/12/06 12:36:34;;;;;;;10.40;7.40;;;5.20;99.90;;;;;;5021667;28;20175;-37